createdAt,value
2019-01-08T00:00:21.172Z,5.97
2019-01-08T00:02:53.015Z,8.30
2019-01-08T00:05:23.376Z,6.87
2019-01-08T00:07:53.666Z,8.50
2019-01-08T00:10:24.011Z,7.83
2019-01-08T00:12:54.824Z,6.23
2019-01-08T00:15:25.104Z,6.30
2019-01-08T00:17:57.429Z,10.23
2019-01-08T00:20:28.013Z,6.77
2019-01-08T00:22:58.408Z,7.07
2019-01-08T00:25:29.162Z,5.47
2019-01-08T00:27:59.571Z,7.60
2019-01-08T00:30:29.842Z,7.60
2019-01-08T00:33:00.106Z,6.27
2019-01-08T00:35:31.144Z,6.00
2019-01-08T00:38:01.855Z,10.10
2019-01-08T00:40:32.199Z,6.83
2019-01-08T00:43:02.576Z,8.63
2019-01-08T00:45:32.898Z,10.17
2019-01-08T00:48:03.185Z,11.50
2019-01-08T00:50:34.656Z,11.07
2019-01-08T00:53:06.495Z,13.03
2019-01-08T00:55:37.168Z,13.53
2019-01-08T00:58:07.597Z,18.57
2019-01-08T01:00:41.112Z,15.27
2019-01-08T01:03:11.481Z,18.37
2019-01-08T01:05:42.319Z,13.80
2019-01-08T01:08:13.985Z,12.37
2019-01-08T01:10:44.257Z,10.97
2019-01-08T01:13:14.532Z,8.30
2019-01-08T01:15:45.243Z,9.80
2019-01-08T01:18:17.311Z,6.37
2019-01-08T01:20:47.678Z,8.27
2019-01-08T01:23:18.037Z,12.67
2019-01-08T01:25:48.435Z,11.20
2019-01-08T01:28:19.566Z,9.07
2019-01-08T01:30:49.961Z,13.73
2019-01-08T01:33:20.241Z,8.47
2019-01-08T01:35:50.535Z,11.47
2019-01-08T01:38:20.958Z,6.30
2019-01-08T01:40:51.775Z,7.57
2019-01-08T01:43:23.358Z,12.23
2019-01-08T01:45:53.632Z,15.00
2019-01-08T01:48:23.986Z,14.57
2019-01-08T01:50:54.778Z,11.63
2019-01-08T01:53:25.116Z,9.50
2019-01-08T01:55:55.396Z,9.37
2019-01-08T01:58:27.061Z,15.83
2019-01-08T02:00:57.892Z,9.40
2019-01-08T02:03:28.222Z,14.87
2019-01-08T02:05:58.933Z,12.17
2019-01-08T02:08:29.213Z,17.93
2019-01-08T02:10:59.973Z,15.17
2019-01-08T02:13:30.243Z,21.00
2019-01-08T02:16:00.540Z,15.80
2019-01-08T02:18:33.047Z,18.43
2019-01-08T02:21:03.873Z,15.83
2019-01-08T02:23:34.211Z,22.20
2019-01-08T02:26:04.537Z,17.33
2019-01-08T02:28:34.838Z,16.40
2019-01-08T02:31:05.687Z,20.27
2019-01-08T02:33:36.023Z,20.80
2019-01-08T02:36:06.967Z,21.77
2019-01-08T02:38:37.251Z,18.60
2019-01-08T02:41:07.885Z,15.73
2019-01-08T02:43:38.271Z,14.47
2019-01-08T02:46:09.355Z,17.57
2019-01-08T02:48:39.723Z,18.10
2019-01-08T02:51:11.363Z,21.80
2019-01-08T02:53:41.657Z,17.37
2019-01-08T02:56:12.030Z,19.37
2019-01-08T02:58:42.601Z,19.10
2019-01-08T03:01:13.495Z,21.87
2019-01-08T03:03:43.778Z,26.67
2019-01-08T03:06:15.070Z,19.17
2019-01-08T03:08:45.374Z,26.23
2019-01-08T03:11:15.641Z,27.63
2019-01-08T03:13:46.022Z,23.57
2019-01-08T03:16:16.885Z,20.33
2019-01-08T03:18:48.513Z,24.67
2019-01-08T03:21:22.208Z,25.87
2019-01-08T03:23:52.510Z,24.20
2019-01-08T03:26:22.796Z,18.43
2019-01-08T03:28:54.231Z,21.00
2019-01-08T03:31:24.941Z,21.97
2019-01-08T03:33:55.334Z,21.13
2019-01-08T03:36:26.254Z,29.40
2019-01-08T03:38:56.539Z,21.97
2019-01-08T03:41:27.440Z,20.63
2019-01-08T03:43:57.745Z,26.10
2019-01-08T03:46:28.524Z,26.47
2019-01-08T03:48:58.784Z,32.87
2019-01-08T03:51:30.567Z,23.53
2019-01-08T03:54:00.846Z,22.17
2019-01-08T03:56:31.157Z,22.63
2019-01-08T03:59:01.492Z,28.63
2019-01-08T04:01:32.683Z,25.73
2019-01-08T04:04:02.982Z,25.67
2019-01-08T04:06:34.544Z,30.77
2019-01-08T04:09:06.545Z,21.90
2019-01-08T04:11:37.324Z,20.70
2019-01-08T04:14:07.603Z,25.23
2019-01-08T04:16:37.916Z,19.63
2019-01-08T04:19:08.916Z,28.60
2019-01-08T04:21:40.112Z,25.43
2019-01-08T04:24:10.378Z,27.60
2019-01-08T04:26:40.636Z,24.67
2019-01-08T04:29:11.104Z,26.70
2019-01-08T04:31:41.841Z,24.37
2019-01-08T04:34:12.117Z,25.50
2019-01-08T04:36:43.317Z,28.13
2019-01-08T04:39:13.598Z,20.33
2019-01-08T04:41:43.862Z,29.67
2019-01-08T04:44:14.242Z,26.10
2019-01-08T04:46:45.080Z,28.40
2019-01-08T04:49:15.351Z,28.40
2019-01-08T04:51:46.599Z,28.57
2019-01-08T04:54:16.878Z,29.00
2019-01-08T04:56:47.165Z,20.40
2019-01-08T04:59:17.781Z,25.77
2019-01-08T05:01:48.501Z,22.83
2019-01-08T05:04:18.823Z,23.00
2019-01-08T05:06:49.338Z,32.33
2019-01-08T05:09:21.835Z,30.17
2019-01-08T05:11:52.624Z,25.93
2019-01-08T05:14:22.941Z,21.93
2019-01-08T05:16:53.230Z,26.63
2019-01-08T05:19:24.513Z,28.50
2019-01-08T05:21:55.307Z,21.50
2019-01-08T05:24:26.984Z,27.47
2019-01-08T05:26:57.268Z,21.77
2019-01-08T05:29:27.530Z,21.73
2019-01-08T05:31:57.810Z,26.73
2019-01-08T05:34:28.723Z,27.73
2019-01-08T05:36:59.141Z,29.33
2019-01-08T05:39:29.408Z,27.57
2019-01-08T05:41:59.688Z,21.13
2019-01-08T05:44:30.465Z,25.47
2019-01-08T05:47:00.755Z,24.37
2019-01-08T05:49:31.060Z,30.13
2019-01-08T05:52:01.367Z,23.23
2019-01-08T05:54:34.537Z,27.13
2019-01-08T05:57:04.818Z,21.70
2019-01-08T05:59:35.144Z,25.87
2019-01-08T06:02:05.539Z,30.60
2019-01-08T06:04:36.396Z,31.67
2019-01-08T06:07:06.724Z,27.17
2019-01-08T06:09:37.045Z,24.37
2019-01-08T06:12:07.450Z,24.27
2019-01-08T06:14:39.399Z,28.10
2019-01-08T06:17:09.702Z,30.73
2019-01-08T06:19:43.983Z,27.97
2019-01-08T06:22:14.289Z,28.03
2019-01-08T06:24:45.680Z,21.80
2019-01-08T06:27:15.967Z,26.73
2019-01-08T06:29:47.439Z,20.20
2019-01-08T06:32:17.722Z,29.17
2019-01-08T06:34:47.988Z,26.17
2019-01-08T06:37:18.956Z,29.17
2019-01-08T06:39:49.740Z,25.77
2019-01-08T06:42:20.145Z,31.07
2019-01-08T06:44:50.847Z,23.67
2019-01-08T06:47:22.179Z,23.10
2019-01-08T06:49:52.516Z,18.77
2019-01-08T06:52:22.844Z,25.83
2019-01-08T06:54:53.204Z,27.43
2019-01-08T06:57:24.108Z,25.87
2019-01-08T06:59:54.617Z,32.63
2019-01-08T07:02:25.955Z,25.43
2019-01-08T07:04:56.254Z,23.33
2019-01-08T07:07:27.096Z,32.77
2019-01-08T07:09:57.773Z,27.93
2019-01-08T07:12:28.200Z,33.90
2019-01-08T07:14:58.610Z,32.17
2019-01-08T07:17:30.304Z,33.00
2019-01-08T07:20:01.284Z,26.80
2019-01-08T07:22:32.475Z,29.83
2019-01-08T07:25:02.800Z,28.77
2019-01-08T07:27:33.523Z,31.93
2019-01-08T07:30:04.498Z,25.83
2019-01-08T07:32:36.115Z,23.37
2019-01-08T07:35:06.421Z,36.40
2019-01-08T07:37:37.311Z,24.17
2019-01-08T07:40:07.955Z,32.07
2019-01-08T07:42:38.257Z,28.33
2019-01-08T07:45:08.620Z,27.43
2019-01-08T07:47:41.452Z,34.20
2019-01-08T07:50:11.870Z,32.57
2019-01-08T07:52:42.288Z,27.77
2019-01-08T07:55:12.654Z,22.53
2019-01-08T07:57:43.980Z,28.23
2019-01-08T08:00:14.550Z,21.37
2019-01-08T08:02:45.780Z,30.80
2019-01-08T08:05:16.159Z,28.47
2019-01-08T08:07:47.029Z,28.13
2019-01-08T08:10:17.310Z,35.37
2019-01-08T08:12:48.043Z,23.77
2019-01-08T08:15:18.330Z,27.23
2019-01-08T08:17:50.581Z,19.10
2019-01-08T08:20:21.456Z,24.70
2019-01-08T08:22:51.756Z,21.83
2019-01-08T08:25:22.032Z,25.40
2019-01-08T08:27:52.917Z,21.33
2019-01-08T08:30:23.290Z,21.93
2019-01-08T08:32:53.564Z,24.23
2019-01-08T08:35:25.222Z,27.77
2019-01-08T08:37:55.933Z,30.53
2019-01-08T08:40:26.216Z,69.57
2019-01-08T08:42:56.509Z,119.57
2019-01-08T08:45:26.893Z,92.03
2019-01-08T08:47:57.672Z,22.43
2019-01-08T08:50:29.349Z,25.07
2019-01-08T08:52:59.940Z,18.17
2019-01-08T08:55:31.253Z,28.13
2019-01-08T08:58:02.000Z,20.63
2019-01-08T09:00:32.340Z,22.13
2019-01-08T09:03:04.372Z,25.53
2019-01-08T09:05:40.122Z,27.07
2019-01-08T09:08:14.744Z,20.47
2019-01-08T09:10:46.225Z,22.90
2019-01-08T09:13:16.537Z,24.23
2019-01-08T09:15:47.302Z,25.33
2019-01-08T09:18:18.616Z,22.17
2019-01-08T09:20:51.871Z,23.03
2019-01-08T09:23:22.446Z,24.50
2019-01-08T09:25:53.034Z,18.83
2019-01-08T09:28:24.220Z,24.17
2019-01-08T09:30:55.671Z,26.60
2019-01-08T09:33:26.393Z,24.63
2019-01-08T09:35:58.820Z,24.00
2019-01-08T09:38:29.250Z,20.30
2019-01-08T09:41:00.166Z,21.20
2019-01-08T09:43:31.216Z,19.30
2019-01-08T09:46:02.235Z,27.33
2019-01-08T09:48:32.887Z,16.83
2019-01-08T09:51:03.704Z,19.53
2019-01-08T09:53:35.433Z,17.40
2019-01-08T09:56:06.268Z,20.67
2019-01-08T09:58:36.598Z,26.60
2019-01-08T10:01:07.031Z,22.67
2019-01-08T10:03:37.329Z,20.43
2019-01-08T10:06:07.632Z,22.23
2019-01-08T10:08:39.030Z,19.53
2019-01-08T10:11:09.368Z,18.57
2019-01-08T10:13:39.639Z,21.30
2019-01-08T10:16:10.036Z,20.77
2019-01-08T10:18:42.762Z,29.87
2019-01-08T10:21:14.587Z,22.60
2019-01-08T10:23:44.840Z,26.10
2019-01-08T10:26:15.318Z,26.23
2019-01-08T10:28:46.463Z,24.27
2019-01-08T10:31:16.782Z,29.33
2019-01-08T10:33:47.080Z,22.17
2019-01-08T10:36:17.504Z,24.60
2019-01-08T10:38:47.915Z,27.70
2019-01-08T10:41:18.686Z,25.53
2019-01-08T10:43:49.122Z,28.50
2019-01-08T10:46:19.566Z,41.20
2019-01-08T10:48:49.865Z,45.03
2019-01-08T10:51:20.199Z,27.63
2019-01-08T10:53:50.545Z,30.23
2019-01-08T10:56:21.310Z,28.83
2019-01-08T10:58:51.622Z,21.47
2019-01-08T11:01:21.947Z,23.53
2019-01-08T11:03:52.234Z,26.60
2019-01-08T11:06:22.512Z,27.97
2019-01-08T11:08:53.296Z,24.90
2019-01-08T11:11:23.582Z,21.90
2019-01-08T11:13:54.360Z,26.73
2019-01-08T11:16:24.705Z,23.10
2019-01-08T11:18:55.526Z,23.87
2019-01-08T11:21:26.934Z,25.07
2019-01-08T11:23:58.795Z,26.33
2019-01-08T11:26:29.147Z,23.47
2019-01-08T11:29:01.252Z,22.07
2019-01-08T11:31:31.730Z,26.10
2019-01-08T11:34:05.050Z,25.47
2019-01-08T11:36:35.355Z,22.30
2019-01-08T11:39:07.298Z,27.23
2019-01-08T11:41:38.189Z,28.80
2019-01-08T11:44:10.403Z,20.90
2019-01-08T11:46:40.729Z,30.50
2019-01-08T11:49:12.036Z,22.17
2019-01-08T11:51:42.902Z,24.97
2019-01-08T11:54:13.622Z,26.80
2019-01-08T11:56:43.958Z,27.47
2019-01-08T11:59:14.771Z,27.47
2019-01-08T12:01:45.933Z,23.03
2019-01-08T12:04:17.733Z,22.57
2019-01-08T12:06:48.045Z,34.47
2019-01-08T12:09:19.406Z,27.57
2019-01-08T12:11:49.728Z,29.63
2019-01-08T12:14:20.130Z,27.10
2019-01-08T12:16:50.429Z,22.30
2019-01-08T12:19:22.572Z,24.93
2019-01-08T12:21:54.559Z,25.07
2019-01-08T12:24:24.884Z,23.03
2019-01-08T12:26:55.581Z,27.07
2019-01-08T12:29:26.564Z,27.17
2019-01-08T12:32:05.608Z,27.90
2019-01-08T12:34:29.976Z,24.47
2019-01-08T12:37:00.253Z,21.50
2019-01-08T12:39:31.063Z,18.47
2019-01-08T12:42:01.551Z,18.73
2019-01-08T12:44:32.110Z,21.43
2019-01-08T12:47:02.405Z,22.03
2019-01-08T12:49:34.530Z,20.83
2019-01-08T12:52:05.004Z,21.30
2019-01-08T12:54:35.501Z,26.17
2019-01-08T12:57:05.776Z,25.57
2019-01-08T12:59:36.665Z,20.80
2019-01-08T13:02:14.646Z,23.40
2019-01-08T13:04:39.663Z,22.37
2019-01-08T13:07:09.925Z,24.83
2019-01-08T13:09:40.830Z,21.27
2019-01-08T13:12:11.137Z,33.90
2019-01-08T13:14:41.442Z,25.27
2019-01-08T13:17:11.937Z,25.60
2019-01-08T13:19:42.814Z,24.37
2019-01-08T13:22:16.214Z,29.73
2019-01-08T13:24:46.511Z,29.60
2019-01-08T13:27:16.902Z,28.57
2019-01-08T13:29:47.861Z,38.53
2019-01-08T13:32:23.120Z,29.07
2019-01-08T13:34:50.292Z,27.43
2019-01-08T13:37:20.563Z,21.50
2019-01-08T13:39:51.071Z,27.50
2019-01-08T13:42:21.946Z,23.33
2019-01-08T13:44:52.222Z,22.87
2019-01-08T13:47:22.518Z,23.73
2019-01-08T13:49:52.837Z,23.93
2019-01-08T13:52:23.110Z,29.27
2019-01-08T13:54:53.926Z,28.10
2019-01-08T13:57:24.947Z,31.90
2019-01-08T13:59:55.474Z,27.57
2019-01-08T14:02:31.811Z,23.33
2019-01-08T14:04:57.814Z,29.43
2019-01-08T14:07:28.122Z,24.63
2019-01-08T14:09:59.417Z,21.27
2019-01-08T14:12:29.729Z,19.47
2019-01-08T14:15:00.178Z,17.43
2019-01-08T14:17:30.484Z,19.50
2019-01-08T14:20:01.322Z,12.97
2019-01-08T14:22:33.038Z,19.03
2019-01-08T14:25:04.676Z,15.97
2019-01-08T14:27:36.073Z,20.60
2019-01-08T14:30:08.087Z,18.33
2019-01-08T14:32:40.842Z,15.53
2019-01-08T14:35:10.735Z,23.30
2019-01-08T14:37:41.041Z,24.27
2019-01-08T14:40:11.979Z,16.33
2019-01-08T14:42:42.531Z,23.47
2019-01-08T14:45:12.891Z,28.30
2019-01-08T14:47:43.142Z,22.70
2019-01-08T14:50:13.971Z,24.30
2019-01-08T14:52:44.249Z,19.83
2019-01-08T14:55:14.533Z,22.87
2019-01-08T14:57:45.820Z,20.00
2019-01-08T15:00:16.719Z,28.57
2019-01-08T15:02:49.752Z,22.63
2019-01-08T15:05:20.566Z,24.33
2019-01-08T15:07:51.101Z,24.87
2019-01-08T15:10:21.848Z,24.37
2019-01-08T15:12:53.393Z,28.77
2019-01-08T15:15:23.667Z,31.00
2019-01-08T15:17:54.067Z,25.73
2019-01-08T15:20:24.880Z,22.43
2019-01-08T15:22:55.548Z,32.53
2019-01-08T15:25:25.842Z,25.87
2019-01-08T15:27:56.783Z,26.73
2019-01-08T15:30:27.633Z,26.40
2019-01-08T15:32:58.639Z,24.40
2019-01-08T15:35:29.030Z,15.07
2019-01-08T15:37:59.413Z,12.43
2019-01-08T15:40:30.277Z,13.40
2019-01-08T15:43:00.649Z,15.37
2019-01-08T15:45:31.071Z,12.43
2019-01-08T15:48:01.362Z,16.33
2019-01-08T15:50:32.211Z,19.20
2019-01-08T15:53:02.501Z,13.93
2019-01-08T15:55:32.918Z,17.17
2019-01-08T15:58:03.202Z,25.77
2019-01-08T16:00:34.640Z,23.17
2019-01-08T16:03:07.587Z,27.60
2019-01-08T16:05:37.301Z,25.87
2019-01-08T16:08:07.732Z,27.13
2019-01-08T16:10:38.686Z,26.23
2019-01-08T16:13:08.992Z,23.70
2019-01-08T16:15:40.791Z,24.50
2019-01-08T16:18:11.079Z,23.60
2019-01-08T16:20:42.043Z,29.10
2019-01-08T16:23:13.650Z,32.93
2019-01-08T16:25:44.003Z,33.93
2019-01-08T16:28:14.327Z,25.03
2019-01-08T16:30:46.823Z,36.23
2019-01-08T16:33:17.161Z,24.17
2019-01-08T16:35:47.495Z,23.60
2019-01-08T16:38:18.295Z,28.50
2019-01-08T16:40:49.168Z,27.83
2019-01-08T16:43:19.459Z,25.67
2019-01-08T16:45:50.419Z,24.57
2019-01-08T16:48:20.748Z,34.23
2019-01-08T16:50:51.982Z,22.03
2019-01-08T16:53:22.298Z,23.40
2019-01-08T16:55:52.605Z,26.00
2019-01-08T16:58:22.997Z,28.17
2019-01-08T17:00:55.063Z,26.47
2019-01-08T17:03:26.788Z,30.77
2019-01-08T17:05:57.235Z,25.40
2019-01-08T17:08:27.601Z,21.40
2019-01-08T17:10:58.480Z,25.63
2019-01-08T17:13:28.818Z,29.03
2019-01-08T17:16:00.057Z,22.87
2019-01-08T17:18:30.390Z,29.73
2019-01-08T17:21:01.487Z,31.30
2019-01-08T17:23:32.396Z,30.47
2019-01-08T17:26:02.802Z,25.97
2019-01-08T17:28:33.217Z,25.47
2019-01-08T17:31:05.386Z,28.47
2019-01-08T17:33:35.702Z,27.80
2019-01-08T17:36:05.981Z,25.23
2019-01-08T17:38:36.263Z,28.27
2019-01-08T17:41:06.262Z,24.60
2019-01-08T17:43:36.554Z,23.73
2019-01-08T17:46:06.846Z,30.70
2019-01-08T17:48:39.068Z,30.33
2019-01-08T17:51:09.855Z,19.33
2019-01-08T17:53:40.279Z,27.87
2019-01-08T17:56:10.928Z,24.77
2019-01-08T17:58:43.651Z,26.30
2019-01-08T18:01:34.949Z,29.73
2019-01-08T18:04:07.195Z,37.77
2019-01-08T18:06:37.528Z,26.47
2019-01-08T18:09:08.292Z,23.63
2019-01-08T18:11:39.162Z,28.03
2019-01-08T18:14:09.515Z,23.43
2019-01-08T18:16:40.058Z,27.40
2019-01-08T18:19:11.936Z,22.73
2019-01-08T18:21:42.750Z,25.80
2019-01-08T18:24:13.171Z,19.67
2019-01-08T18:26:43.683Z,23.83
2019-01-08T18:29:14.212Z,27.37
2019-01-08T18:31:45.059Z,22.37
2019-01-08T18:34:16.524Z,25.43
2019-01-08T18:36:47.807Z,21.77
2019-01-08T18:39:18.090Z,19.63
2019-01-08T18:41:49.395Z,24.10
2019-01-08T18:44:20.363Z,29.87
2019-01-08T18:46:50.635Z,23.67
2019-01-08T18:49:22.048Z,24.03
2019-01-08T18:51:52.366Z,25.97
2019-01-08T18:54:22.880Z,25.67
2019-01-08T18:56:53.754Z,21.60
2019-01-08T18:59:24.817Z,18.60
2019-01-08T19:01:56.047Z,23.53
2019-01-08T19:04:27.641Z,25.93
2019-01-08T19:06:57.948Z,30.73
2019-01-08T19:09:34.008Z,22.13
2019-01-08T19:12:05.399Z,26.13
2019-01-08T19:14:45.146Z,19.97
2019-01-08T19:17:15.439Z,28.47
2019-01-08T19:19:46.439Z,29.57
2019-01-08T19:22:17.190Z,22.97
2019-01-08T19:24:50.826Z,24.13
2019-01-08T19:27:22.332Z,23.17
2019-01-08T19:29:52.797Z,34.27
2019-01-08T19:32:23.598Z,21.97
2019-01-08T19:34:54.947Z,25.37
2019-01-08T19:37:25.307Z,38.70
2019-01-08T19:39:55.718Z,23.73
2019-01-08T19:42:26.558Z,25.47
2019-01-08T19:44:56.869Z,24.43
2019-01-08T19:47:28.508Z,21.47
2019-01-08T19:49:58.765Z,22.33
2019-01-08T19:52:30.399Z,21.77
2019-01-08T19:55:00.691Z,22.63
2019-01-08T19:57:31.101Z,18.97
2019-01-08T20:00:01.398Z,27.93
2019-01-08T20:02:33.161Z,26.77
2019-01-08T20:05:03.463Z,29.43
2019-01-08T20:07:35.062Z,29.53
2019-01-08T20:10:07.177Z,22.80
2019-01-08T20:12:37.932Z,31.00
2019-01-08T20:15:10.077Z,26.70
2019-01-08T20:17:40.559Z,21.07
2019-01-08T20:20:11.254Z,23.10
2019-01-08T20:22:42.615Z,28.17
2019-01-08T20:25:14.288Z,25.23
2019-01-08T20:27:44.630Z,25.97
2019-01-08T20:30:15.039Z,22.97
2019-01-08T20:32:46.114Z,28.27
2019-01-08T20:35:16.442Z,27.03
2019-01-08T20:37:47.790Z,26.07
2019-01-08T20:40:18.175Z,15.47
2019-01-08T20:42:49.100Z,34.07
2019-01-08T20:45:19.391Z,24.07
2019-01-08T20:47:49.799Z,28.30
2019-01-08T20:50:20.261Z,28.73
2019-01-08T20:52:53.071Z,20.03
2019-01-08T20:55:23.343Z,24.90
2019-01-08T20:57:53.633Z,22.77
2019-01-08T21:00:24.061Z,27.57
2019-01-08T21:02:54.781Z,22.73
2019-01-08T21:05:25.498Z,20.33
2019-01-08T21:07:56.176Z,24.03
2019-01-08T21:10:26.563Z,21.90
2019-01-08T21:12:57.297Z,29.53
2019-01-08T21:15:28.063Z,22.27
2019-01-08T21:17:59.401Z,25.03
2019-01-08T21:20:29.806Z,27.20
2019-01-08T21:23:00.219Z,20.63
2019-01-08T21:25:32.482Z,26.23
2019-01-08T21:28:02.940Z,22.83
2019-01-08T21:30:33.383Z,22.47
2019-01-08T21:33:03.637Z,21.80
2019-01-08T21:35:33.976Z,17.97
2019-01-08T21:38:04.747Z,27.87
2019-01-08T21:40:35.617Z,22.93
2019-01-08T21:43:06.355Z,27.37
2019-01-08T21:45:36.699Z,18.10
2019-01-08T21:48:07.628Z,24.33
2019-01-08T21:50:38.123Z,23.50
2019-01-08T21:53:08.724Z,23.40
2019-01-08T21:55:40.439Z,21.83
2019-01-08T21:58:11.281Z,18.87
2019-01-08T22:00:41.758Z,23.80
2019-01-08T22:03:12.139Z,23.73
2019-01-08T22:05:42.433Z,21.90
2019-01-08T22:08:13.011Z,22.50
2019-01-08T22:10:43.827Z,23.70
2019-01-08T22:13:14.471Z,19.30
2019-01-08T22:15:44.861Z,17.23
2019-01-08T22:18:15.234Z,14.50
2019-01-08T22:20:46.024Z,18.10
2019-01-08T22:23:17.180Z,14.20
2019-01-08T22:25:50.337Z,21.20
2019-01-08T22:28:23.996Z,16.47
2019-01-08T22:30:55.043Z,19.57
2019-01-08T22:33:25.363Z,21.83
2019-01-08T22:35:55.737Z,18.60
2019-01-08T22:38:26.151Z,21.87
2019-01-08T22:40:57.094Z,21.80
2019-01-08T22:43:29.027Z,22.00
2019-01-08T22:45:59.418Z,25.77
2019-01-08T22:48:29.985Z,25.30
2019-01-08T22:51:00.779Z,20.07
2019-01-08T22:53:31.243Z,19.73
2019-01-08T22:56:02.054Z,23.30
2019-01-08T22:58:33.640Z,16.80
2019-01-08T23:01:17.713Z,21.90
2019-01-08T23:03:48.035Z,20.27
2019-01-08T23:06:18.339Z,18.03
2019-01-08T23:08:48.750Z,20.70
2019-01-08T23:11:21.660Z,20.07
2019-01-08T23:13:52.308Z,21.93
2019-01-08T23:16:22.634Z,24.07
2019-01-08T23:18:53.009Z,16.40
2019-01-08T23:21:23.986Z,20.17
2019-01-08T23:23:54.356Z,20.67
2019-01-08T23:26:27.886Z,20.10
2019-01-08T23:28:58.338Z,15.80
2019-01-08T23:31:30.507Z,20.77
2019-01-08T23:34:00.810Z,22.63
2019-01-08T23:36:31.163Z,17.47
2019-01-08T23:39:01.460Z,18.87
2019-01-08T23:41:32.732Z,13.80
2019-01-08T23:44:03.612Z,12.17
2019-01-08T23:46:33.953Z,19.47
2019-01-08T23:49:05.203Z,14.87
2019-01-08T23:51:35.472Z,17.00
2019-01-08T23:54:06.346Z,11.37
2019-01-08T23:56:36.634Z,15.77
2019-01-08T23:59:06.934Z,19.07
